createdAt,value
2018-12-27T00:01:37.295Z,342.13
2018-12-27T00:04:18.057Z,300.03
2018-12-27T00:06:58.643Z,315.23
2018-12-27T00:09:38.962Z,303.97
2018-12-27T00:12:20.203Z,298.00
2018-12-27T00:15:01.250Z,298.60
2018-12-27T00:17:42.094Z,308.73
2018-12-27T00:20:23.048Z,313.60
2018-12-27T00:23:03.747Z,322.27
2018-12-27T00:25:44.499Z,303.53
2018-12-27T00:28:25.293Z,309.70
2018-12-27T00:31:06.040Z,325.07
2018-12-27T00:33:46.565Z,319.40
2018-12-27T00:36:26.568Z,288.77
2018-12-27T00:39:07.657Z,305.90
2018-12-27T00:41:48.239Z,303.93
2018-12-27T00:44:28.654Z,314.47
2018-12-27T00:47:09.532Z,308.47
2018-12-27T00:49:50.649Z,304.60
2018-12-27T00:52:31.809Z,306.67
2018-12-27T00:55:13.297Z,315.47
2018-12-27T00:57:54.255Z,325.40
2018-12-27T01:00:34.500Z,345.40
2018-12-27T01:03:15.554Z,325.93
2018-12-27T01:05:56.074Z,317.70
2018-12-27T01:08:36.905Z,306.20
2018-12-27T01:11:18.115Z,334.30
2018-12-27T01:13:59.036Z,322.20
2018-12-27T01:16:40.255Z,449.77
2018-12-27T01:19:20.927Z,457.70
2018-12-27T01:22:01.659Z,439.77
2018-12-27T01:24:42.921Z,436.47
2018-12-27T01:27:23.522Z,429.40
2018-12-27T01:30:04.790Z,422.20
2018-12-27T01:32:45.765Z,438.70
2018-12-27T01:35:26.860Z,370.37
2018-12-27T01:38:07.962Z,323.50
2018-12-27T01:40:48.974Z,354.60
2018-12-27T01:43:29.698Z,393.90
2018-12-27T01:46:10.894Z,347.07
2018-12-27T01:48:52.167Z,347.07
2018-12-27T01:51:33.492Z,356.97
2018-12-27T01:54:14.576Z,390.97
2018-12-27T01:56:55.700Z,381.97
2018-12-27T01:59:36.811Z,395.03
2018-12-27T02:02:17.697Z,403.90
2018-12-27T02:04:58.693Z,388.93
2018-12-27T02:07:39.887Z,366.23
2018-12-27T02:10:20.957Z,363.63
2018-12-27T02:13:02.231Z,366.57
2018-12-27T02:15:43.393Z,352.73
2018-12-27T02:18:25.000Z,368.93
2018-12-27T02:21:06.096Z,336.03
2018-12-27T02:23:46.652Z,344.40
2018-12-27T02:26:27.352Z,335.07
2018-12-27T02:29:08.162Z,338.00
2018-12-27T02:31:49.171Z,321.93
2018-12-27T02:34:29.494Z,320.07
2018-12-27T02:37:10.727Z,320.40
2018-12-27T02:39:51.699Z,330.70
2018-12-27T02:42:32.097Z,329.13
2018-12-27T02:45:12.202Z,320.70
2018-12-27T02:47:52.493Z,336.77
2018-12-27T02:50:33.100Z,328.63
2018-12-27T02:53:13.535Z,346.10
2018-12-27T02:55:54.220Z,310.00
2018-12-27T02:58:34.877Z,325.97
2018-12-27T03:01:15.864Z,326.27
2018-12-27T03:03:56.640Z,316.43
2018-12-27T03:06:38.099Z,300.63
2018-12-27T03:09:18.771Z,295.57
2018-12-27T03:12:00.012Z,293.67
2018-12-27T03:14:41.042Z,305.70
2018-12-27T03:17:21.616Z,277.17
2018-12-27T03:20:02.579Z,276.77
2018-12-27T03:22:43.016Z,288.60
2018-12-27T03:25:24.166Z,287.00
2018-12-27T03:28:05.178Z,271.30
2018-12-27T03:30:46.420Z,273.13
2018-12-27T03:33:27.442Z,263.70
2018-12-27T03:36:08.095Z,253.03
2018-12-27T03:38:49.094Z,237.50
2018-12-27T03:41:31.261Z,231.57
2018-12-27T03:44:11.732Z,243.47
2018-12-27T03:46:52.810Z,227.13
2018-12-27T03:49:33.797Z,231.33
2018-12-27T03:52:14.849Z,219.43
2018-12-27T03:54:55.915Z,233.23
2018-12-27T03:57:37.305Z,232.27
2018-12-27T04:00:18.280Z,224.47
2018-12-27T04:02:59.164Z,218.63
2018-12-27T04:05:40.370Z,227.17
2018-12-27T04:08:21.562Z,201.50
2018-12-27T04:11:02.133Z,199.23
2018-12-27T04:13:43.137Z,206.50
2018-12-27T04:16:24.322Z,188.10
2018-12-27T04:19:05.370Z,179.07
2018-12-27T04:21:46.395Z,179.23
2018-12-27T04:24:27.152Z,183.67
2018-12-27T04:27:08.175Z,191.93
2018-12-27T04:29:49.195Z,187.87
2018-12-27T04:32:30.086Z,200.37
2018-12-27T04:35:10.845Z,209.77
2018-12-27T04:37:52.324Z,178.97
2018-12-27T04:40:33.289Z,251.70
2018-12-27T04:43:14.381Z,314.63
2018-12-27T04:45:55.343Z,356.37
2018-12-27T04:48:36.219Z,186.97
2018-12-27T04:51:17.257Z,155.87
2018-12-27T04:53:57.964Z,162.77
2018-12-27T04:56:38.859Z,145.70
2018-12-27T04:59:19.295Z,141.17
2018-12-27T05:02:00.383Z,129.23
2018-12-27T05:04:41.020Z,123.37
2018-12-27T05:07:22.247Z,119.20
2018-12-27T05:10:02.702Z,118.50
2018-12-27T05:12:43.658Z,114.47
2018-12-27T05:15:24.219Z,111.37
2018-12-27T05:18:04.499Z,125.07
2018-12-27T05:20:45.545Z,111.63
2018-12-27T05:23:26.404Z,108.70
2018-12-27T05:26:07.183Z,118.57
2018-12-27T05:28:47.167Z,130.83
2018-12-27T05:31:27.118Z,125.40
2018-12-27T05:34:08.051Z,131.20
2018-12-27T05:36:48.198Z,134.70
2018-12-27T05:39:29.282Z,131.57
2018-12-27T05:42:09.846Z,133.93
2018-12-27T05:44:50.009Z,125.83
2018-12-27T05:47:30.672Z,115.03
2018-12-27T05:50:11.610Z,112.17
2018-12-27T05:52:52.246Z,112.83
2018-12-27T05:55:34.504Z,110.77
2018-12-27T05:58:13.819Z,125.40
2018-12-27T06:00:54.206Z,108.17
2018-12-27T06:03:34.279Z,120.60
2018-12-27T06:06:15.129Z,108.03
2018-12-27T06:08:55.329Z,121.20
2018-12-27T06:11:35.881Z,121.90
2018-12-27T06:14:16.285Z,117.43
2018-12-27T06:16:57.060Z,112.77
2018-12-27T06:19:37.244Z,122.30
2018-12-27T06:25:01.331Z,120.27
2018-12-27T06:27:41.779Z,109.70
2018-12-27T06:30:22.462Z,119.73
2018-12-27T06:33:02.795Z,115.47
2018-12-27T06:35:43.274Z,118.17
2018-12-27T06:38:23.472Z,110.03
2018-12-27T06:41:03.778Z,120.10
2018-12-27T06:43:43.966Z,119.87
2018-12-27T06:46:24.051Z,116.67
2018-12-27T06:49:04.454Z,114.97
2018-12-27T06:51:44.635Z,118.37
2018-12-27T06:54:26.366Z,118.60
2018-12-27T06:57:06.661Z,114.83
2018-12-27T06:59:47.034Z,115.27
2018-12-27T07:02:28.517Z,113.70
2018-12-27T07:05:08.364Z,115.27
2018-12-27T07:07:48.917Z,122.23
2018-12-27T07:10:29.441Z,118.93
2018-12-27T07:13:09.775Z,116.77
2018-12-27T07:15:50.204Z,122.17
2018-12-27T07:18:31.083Z,120.37
2018-12-27T07:21:11.332Z,115.57
2018-12-27T07:23:52.721Z,105.20
2018-12-27T07:26:33.890Z,118.17
2018-12-27T07:29:16.737Z,113.30
2018-12-27T07:31:59.618Z,115.73
2018-12-27T07:34:40.328Z,112.57
2018-12-27T07:37:20.327Z,107.73
2018-12-27T07:40:01.033Z,111.77
2018-12-27T07:42:42.165Z,114.60
2018-12-27T07:45:22.650Z,109.57
2018-12-27T07:48:02.870Z,108.57
2018-12-27T07:50:42.858Z,112.73
2018-12-27T07:53:23.420Z,107.57
2018-12-27T07:56:04.096Z,107.50
2018-12-27T07:58:44.532Z,110.40
2018-12-27T08:01:25.003Z,116.87
2018-12-27T08:04:05.566Z,113.00
2018-12-27T08:06:46.526Z,120.53
2018-12-27T08:09:26.617Z,112.80
2018-12-27T08:12:07.175Z,121.70
2018-12-27T08:14:47.931Z,117.23
2018-12-27T08:17:28.790Z,117.17
2018-12-27T08:20:09.843Z,115.10
2018-12-27T08:22:50.254Z,113.17
2018-12-27T08:25:30.824Z,114.60
2018-12-27T08:28:11.172Z,115.00
2018-12-27T08:30:52.259Z,118.43
2018-12-27T08:33:32.596Z,117.30
2018-12-27T08:36:12.956Z,113.70
2018-12-27T08:38:53.414Z,111.37
2018-12-27T08:41:34.703Z,111.37
2018-12-27T08:44:15.067Z,122.17
2018-12-27T08:46:56.573Z,109.57
2018-12-27T08:49:37.363Z,119.10
2018-12-27T08:52:17.432Z,110.13
2018-12-27T08:54:57.936Z,116.13
2018-12-27T08:57:38.317Z,122.87
2018-12-27T09:00:18.922Z,125.63
2018-12-27T09:02:59.839Z,120.17
2018-12-27T09:05:40.170Z,121.23
2018-12-27T09:08:21.623Z,114.90
2018-12-27T09:11:03.149Z,118.47
2018-12-27T09:13:43.613Z,121.70
2018-12-27T09:16:23.968Z,121.90
2018-12-27T09:19:04.840Z,121.20
2018-12-27T09:21:45.196Z,118.43
2018-12-27T09:24:28.430Z,121.17
2018-12-27T09:27:09.203Z,119.63
2018-12-27T09:29:49.456Z,112.37
2018-12-27T09:32:29.927Z,110.53
2018-12-27T09:35:10.249Z,115.60
2018-12-27T09:37:50.850Z,118.00
2018-12-27T09:40:31.209Z,106.70
2018-12-27T09:43:11.689Z,109.60
2018-12-27T09:45:52.333Z,112.47
2018-12-27T09:48:32.773Z,118.93
2018-12-27T09:51:13.260Z,108.47
2018-12-27T09:53:53.819Z,111.03
2018-12-27T09:56:34.614Z,110.43
2018-12-27T09:59:15.535Z,102.53
2018-12-27T10:01:56.530Z,107.83
2018-12-27T10:04:37.523Z,107.33
2018-12-27T10:07:17.761Z,107.80
2018-12-27T10:09:58.326Z,99.73
2018-12-27T10:12:38.986Z,105.30
2018-12-27T10:15:19.363Z,115.60
2018-12-27T10:18:00.050Z,105.40
2018-12-27T10:20:42.639Z,127.23
2018-12-27T10:23:25.352Z,126.67
2018-12-27T10:26:06.027Z,109.93
2018-12-27T10:28:46.783Z,115.53
2018-12-27T10:31:27.032Z,125.77
2018-12-27T10:34:07.283Z,182.07
2018-12-27T10:36:47.777Z,200.53
2018-12-27T10:39:28.104Z,158.63
2018-12-27T10:42:08.827Z,144.33
2018-12-27T10:44:49.342Z,134.50
2018-12-27T10:47:29.775Z,125.40
2018-12-27T10:50:10.032Z,124.97
2018-12-27T10:52:50.654Z,113.27
2018-12-27T10:55:31.204Z,111.13
2018-12-27T10:58:12.057Z,168.70
2018-12-27T11:00:52.619Z,124.77
2018-12-27T11:03:34.304Z,148.63
2018-12-27T11:06:14.631Z,158.27
2018-12-27T11:08:55.286Z,172.13
2018-12-27T11:11:35.725Z,127.73
2018-12-27T11:14:16.157Z,121.00
2018-12-27T11:16:56.966Z,119.53
2018-12-27T11:19:37.409Z,120.33
2018-12-27T11:22:17.999Z,136.53
2018-12-27T11:24:58.316Z,129.70
2018-12-27T11:27:38.975Z,123.67
2018-12-27T11:30:19.208Z,133.73
2018-12-27T11:32:59.778Z,159.73
2018-12-27T11:35:40.125Z,137.47
2018-12-27T11:38:20.253Z,129.93
2018-12-27T11:41:00.967Z,167.53
2018-12-27T11:43:41.544Z,146.40
2018-12-27T11:46:22.232Z,132.43
2018-12-27T11:49:03.102Z,132.90
2018-12-27T11:51:43.700Z,159.63
2018-12-27T11:54:24.234Z,146.70
2018-12-27T11:57:04.803Z,147.87
2018-12-27T11:59:45.226Z,137.17
2018-12-27T12:02:31.073Z,139.53
2018-12-27T12:05:05.812Z,135.83
2018-12-27T12:07:46.342Z,135.00
2018-12-27T12:10:26.646Z,145.47
2018-12-27T12:13:07.122Z,174.23
2018-12-27T12:15:47.516Z,195.27
2018-12-27T12:18:27.657Z,164.43
2018-12-27T12:21:08.614Z,150.87
2018-12-27T12:23:49.114Z,154.53
2018-12-27T12:26:29.580Z,167.80
2018-12-27T12:29:10.205Z,175.47
2018-12-27T12:31:50.564Z,184.80
2018-12-27T12:34:30.717Z,217.60
2018-12-27T12:37:13.930Z,178.47
2018-12-27T12:39:52.260Z,179.03
2018-12-27T12:42:33.236Z,176.43
2018-12-27T12:45:14.017Z,186.53
2018-12-27T12:47:54.377Z,175.60
2018-12-27T12:50:34.852Z,177.87
2018-12-27T12:53:15.699Z,175.20
2018-12-27T12:55:56.176Z,183.13
2018-12-27T12:58:36.531Z,251.93
2018-12-27T13:01:16.974Z,208.13
2018-12-27T13:03:57.362Z,201.33
2018-12-27T13:06:40.755Z,192.37
2018-12-27T13:09:23.125Z,191.90
2018-12-27T13:12:03.676Z,198.57
2018-12-27T13:14:43.973Z,201.87
2018-12-27T13:17:24.674Z,201.73
2018-12-27T13:20:05.257Z,220.37
2018-12-27T13:22:45.605Z,219.87
2018-12-27T13:25:26.178Z,206.77
2018-12-27T13:28:06.853Z,208.47
2018-12-27T13:30:47.521Z,211.00
2018-12-27T13:33:28.169Z,197.43
2018-12-27T13:36:08.734Z,200.17
2018-12-27T13:38:49.509Z,209.70
2018-12-27T13:41:30.184Z,195.20
2018-12-27T13:44:10.532Z,192.30
2018-12-27T13:46:57.577Z,212.30
2018-12-27T13:49:38.112Z,227.07
2018-12-27T13:52:20.115Z,204.60
2018-12-27T13:55:00.761Z,203.27
2018-12-27T13:57:41.815Z,210.67
2018-12-27T14:00:22.887Z,201.37
2018-12-27T14:03:11.304Z,206.73
2018-12-27T14:05:52.971Z,199.03
2018-12-27T14:08:33.249Z,192.40
2018-12-27T14:11:14.064Z,193.63
2018-12-27T14:13:53.970Z,204.60
2018-12-27T14:16:36.656Z,206.27
2018-12-27T14:19:16.483Z,202.73
2018-12-27T14:21:56.666Z,203.73
2018-12-27T14:24:36.809Z,205.47
2018-12-27T14:27:17.130Z,203.27
2018-12-27T14:29:57.173Z,218.20
2018-12-27T14:32:37.601Z,212.53
2018-12-27T14:35:25.971Z,216.10
2018-12-27T14:38:07.272Z,211.20
2018-12-27T14:40:47.461Z,231.50
2018-12-27T14:43:27.924Z,223.10
2018-12-27T14:46:07.868Z,239.87
2018-12-27T14:48:47.939Z,234.37
2018-12-27T14:51:27.953Z,218.20
2018-12-27T14:54:08.257Z,211.83
2018-12-27T14:56:48.375Z,223.30
2018-12-27T14:59:28.441Z,224.20
2018-12-27T15:02:08.596Z,219.60
2018-12-27T15:04:48.643Z,248.97
2018-12-27T15:07:29.227Z,243.10
2018-12-27T15:10:09.502Z,226.03
2018-12-27T15:12:49.596Z,228.77
2018-12-27T15:15:30.249Z,229.03
2018-12-27T15:18:10.291Z,219.93
2018-12-27T15:20:50.545Z,234.40
2018-12-27T15:23:31.241Z,234.73
2018-12-27T15:26:11.282Z,272.63
2018-12-27T15:28:54.572Z,268.00
2018-12-27T15:31:35.204Z,330.37
2018-12-27T15:34:15.246Z,277.80
2018-12-27T15:36:55.723Z,280.87
2018-12-27T15:39:35.972Z,253.47
2018-12-27T15:42:15.961Z,256.20
2018-12-27T15:44:56.079Z,251.57
2018-12-27T15:47:36.346Z,262.77
2018-12-27T15:50:16.744Z,252.63
2018-12-27T15:52:57.149Z,290.37
2018-12-27T15:55:37.108Z,274.03
2018-12-27T15:58:17.654Z,283.13
2018-12-27T16:00:58.015Z,307.13
2018-12-27T16:03:38.359Z,380.80
2018-12-27T16:06:18.935Z,330.73
2018-12-27T16:08:59.104Z,310.57
2018-12-27T16:11:39.988Z,269.30
2018-12-27T16:14:21.137Z,243.83
2018-12-27T16:17:03.935Z,253.60
2018-12-27T16:19:44.314Z,252.53
2018-12-27T16:22:25.403Z,250.30
2018-12-27T16:25:06.417Z,256.97
2018-12-27T16:27:47.334Z,283.33
2018-12-27T16:30:27.369Z,246.77
2018-12-27T16:33:08.305Z,256.07
2018-12-27T16:35:48.784Z,273.97
2018-12-27T16:38:29.710Z,255.77
2018-12-27T16:41:10.723Z,259.13
2018-12-27T16:43:51.683Z,252.83
2018-12-27T16:46:32.329Z,260.70
2018-12-27T16:49:12.962Z,258.77
2018-12-27T16:51:54.056Z,249.80
2018-12-27T16:54:34.609Z,249.00
2018-12-27T16:57:19.698Z,270.17
2018-12-27T16:59:57.134Z,266.27
2018-12-27T17:02:38.943Z,288.73
2018-12-27T17:05:19.561Z,330.07
2018-12-27T17:08:00.808Z,301.23
2018-12-27T17:10:42.318Z,274.80
2018-12-27T17:13:22.954Z,276.80
2018-12-27T17:16:03.846Z,263.67
2018-12-27T17:18:44.899Z,257.77
2018-12-27T17:21:25.581Z,275.80
2018-12-27T17:24:06.416Z,293.67
2018-12-27T17:26:47.532Z,268.93
2018-12-27T17:29:28.052Z,263.17
2018-12-27T17:32:09.116Z,262.47
2018-12-27T17:34:49.454Z,268.00
2018-12-27T17:37:29.902Z,287.93
2018-12-27T17:40:09.764Z,286.73
2018-12-27T17:42:50.600Z,264.47
2018-12-27T17:45:31.537Z,256.97
2018-12-27T17:48:12.644Z,253.57
2018-12-27T17:50:53.773Z,254.63
2018-12-27T17:53:34.394Z,250.47
2018-12-27T17:56:14.862Z,246.90
2018-12-27T17:58:56.016Z,259.73
2018-12-27T18:01:37.012Z,253.97
2018-12-27T18:04:17.319Z,260.33
2018-12-27T18:06:58.022Z,271.40
2018-12-27T18:09:39.054Z,249.77
2018-12-27T18:12:19.337Z,244.13
2018-12-27T18:15:05.575Z,330.73
2018-12-27T18:17:47.929Z,284.50
2018-12-27T18:20:35.286Z,273.63
2018-12-27T18:23:19.528Z,267.23
2018-12-27T18:26:07.621Z,257.10
2018-12-27T18:28:50.013Z,288.63
2018-12-27T18:31:30.651Z,263.83
2018-12-27T18:34:11.124Z,288.23
2018-12-27T18:36:51.478Z,276.83
2018-12-27T18:39:31.782Z,260.83
2018-12-27T18:42:13.008Z,250.00
2018-12-27T18:44:53.576Z,271.67
2018-12-27T18:47:38.758Z,260.30
2018-12-27T18:50:25.911Z,272.93
2018-12-27T18:53:15.498Z,261.87
2018-12-27T18:56:05.169Z,262.07
2018-12-27T18:58:50.772Z,297.93
2018-12-27T19:01:39.498Z,264.07
2018-12-27T19:04:29.456Z,256.67
2018-12-27T19:07:16.817Z,270.00
2018-12-27T19:10:02.969Z,274.10
2018-12-27T19:12:48.333Z,283.83
2018-12-27T19:15:36.003Z,270.10
2018-12-27T19:18:19.534Z,267.77
2018-12-27T19:21:05.536Z,289.63
2018-12-27T19:26:35.176Z,288.20
2018-12-27T19:29:21.294Z,284.83
2018-12-27T19:32:06.412Z,256.33
2018-12-27T19:34:48.055Z,280.27
2018-12-27T19:37:31.658Z,275.63
2018-12-27T19:40:14.718Z,288.97
2018-12-27T19:42:56.365Z,288.90
2018-12-27T19:45:37.192Z,280.40
2018-12-27T19:48:20.863Z,267.97
2018-12-27T19:51:02.727Z,273.03
2018-12-27T19:53:45.433Z,279.60
2018-12-27T19:56:29.680Z,317.47
2018-12-27T19:59:11.530Z,354.93
2018-12-27T20:01:54.376Z,323.73
2018-12-27T20:04:35.568Z,310.30
2018-12-27T20:07:16.928Z,346.27
2018-12-27T20:09:57.175Z,333.50
2018-12-27T20:12:37.660Z,331.97
2018-12-27T20:15:18.230Z,299.60
2018-12-27T20:17:58.460Z,292.67
2018-12-27T20:20:38.842Z,307.20
2018-12-27T20:23:18.980Z,291.30
2018-12-27T20:26:00.450Z,341.57
2018-12-27T20:28:40.751Z,316.77
2018-12-27T20:31:21.086Z,311.53
2018-12-27T20:34:00.967Z,328.17
2018-12-27T20:36:41.404Z,353.50
2018-12-27T20:39:21.658Z,357.60
2018-12-27T20:42:01.719Z,358.73
2018-12-27T20:44:41.645Z,333.23
2018-12-27T20:47:22.212Z,322.47
2018-12-27T20:50:02.582Z,333.07
2018-12-27T20:52:42.841Z,337.43
2018-12-27T20:55:23.102Z,328.57
2018-12-27T20:58:03.143Z,336.20
2018-12-27T21:00:43.528Z,340.00
2018-12-27T21:03:24.578Z,345.60
2018-12-27T21:06:04.938Z,333.90
2018-12-27T21:08:44.844Z,354.23
2018-12-27T21:11:25.055Z,382.50
2018-12-27T21:14:05.247Z,368.80
2018-12-27T21:16:45.559Z,351.63
2018-12-27T21:19:25.837Z,353.43
2018-12-27T21:22:05.978Z,353.03
2018-12-27T21:24:46.859Z,335.13
2018-12-27T21:27:27.297Z,363.57
2018-12-27T21:30:07.992Z,387.93
2018-12-27T21:32:47.980Z,374.10
2018-12-27T21:35:28.447Z,351.00
2018-12-27T21:38:08.158Z,352.70
2018-12-27T21:40:48.800Z,328.83
2018-12-27T21:43:29.353Z,318.93
2018-12-27T21:46:09.517Z,363.13
2018-12-27T21:48:49.557Z,351.53
2018-12-27T21:51:30.766Z,360.23
2018-12-27T21:54:11.410Z,329.90
2018-12-27T21:56:52.497Z,318.27
2018-12-27T21:59:33.007Z,326.93
2018-12-27T22:02:13.001Z,309.00
2018-12-27T22:04:53.450Z,298.43
2018-12-27T22:07:33.881Z,308.97
2018-12-27T22:10:14.683Z,300.97
2018-12-27T22:12:54.748Z,294.63
2018-12-27T22:15:34.921Z,316.47
2018-12-27T22:18:15.751Z,316.00
2018-12-27T22:20:55.856Z,310.47
2018-12-27T22:23:35.745Z,301.30
2018-12-27T22:26:16.366Z,305.63
2018-12-27T22:28:56.686Z,319.97
2018-12-27T22:31:37.363Z,310.20
2018-12-27T22:34:17.413Z,312.20
2018-12-27T22:36:58.033Z,308.27
2018-12-27T22:39:38.636Z,299.27
2018-12-27T22:42:18.977Z,300.00
2018-12-27T22:44:59.318Z,280.83
2018-12-27T22:47:39.519Z,270.77
2018-12-27T22:50:20.221Z,296.23
2018-12-27T22:53:00.299Z,295.40
2018-12-27T22:55:40.682Z,293.20
2018-12-27T22:58:21.337Z,286.40
2018-12-27T23:01:01.723Z,276.90
2018-12-27T23:03:42.163Z,288.03
2018-12-27T23:06:22.729Z,293.90
2018-12-27T23:09:02.922Z,277.83
2018-12-27T23:11:43.683Z,283.27
2018-12-27T23:14:24.009Z,286.03
2018-12-27T23:17:04.422Z,287.97
2018-12-27T23:19:44.460Z,288.40
2018-12-27T23:22:24.535Z,278.43
2018-12-27T23:25:04.536Z,278.17
2018-12-27T23:27:45.605Z,262.00
2018-12-27T23:30:25.698Z,260.40
2018-12-27T23:33:06.312Z,250.57
2018-12-27T23:35:46.454Z,271.13
2018-12-27T23:38:26.374Z,268.83
2018-12-27T23:41:06.532Z,255.40
2018-12-27T23:43:47.445Z,250.43
2018-12-27T23:46:27.489Z,262.50
2018-12-27T23:49:07.554Z,265.83
2018-12-27T23:51:48.128Z,272.77
2018-12-27T23:54:28.899Z,255.43
2018-12-27T23:57:09.782Z,267.70
2018-12-27T23:59:49.997Z,285.53
